Time;durP1;ratioP1;P1;durP2;ratioP2;P2;SDS_P1;SDS_P2;PMS_P1;PMS_P2;Temp;Humidity;BMP_temperature;BMP_pressure;BME280_temperature;BME280_humidity;BME280_pressure;Samples;Min_cycle;Max_cycle;Signal;HPM_P1;HPM_P2
2021/08/07 00:00:29;;;;;;;4.57;3.15;;;11.60;99.90;;;;;;5075262;28;20056;-90
2021/08/07 00:03:03;;;;;;;3.13;2.92;;;11.60;99.90;;;;;;5074677;28;20044;-90
2021/08/07 00:05:30;;;;;;;4.30;3.03;;;11.60;99.90;;;;;;5074600;28;20090;-90
2021/08/07 00:07:57;;;;;;;3.05;2.80;;;11.60;99.90;;;;;;5074634;28;20049;-90
2021/08/07 00:10:24;;;;;;;3.88;3.45;;;11.60;99.90;;;;;;5074600;28;20400;-91
2021/08/07 00:12:51;;;;;;;3.72;2.97;;;11.60;99.90;;;;;;5074742;28;20135;-89
2021/08/07 00:15:18;;;;;;;2.75;2.65;;;11.50;99.90;;;;;;5074573;28;20051;-89
2021/08/07 00:17:44;;;;;;;3.20;2.90;;;11.50;99.90;;;;;;5074600;28;20139;-90
2021/08/07 00:20:12;;;;;;;4.68;3.10;;;11.50;99.90;;;;;;5074103;28;20049;-90
2021/08/07 00:22:39;;;;;;;2.95;2.60;;;11.40;99.90;;;;;;5074145;28;20056;-90
2021/08/07 00:25:06;;;;;;;3.85;3.40;;;11.40;99.90;;;;;;5078180;28;20139;-90
2021/08/07 00:27:33;;;;;;;3.55;3.20;;;11.40;99.90;;;;;;5074468;28;20049;-90
2021/08/07 00:30:00;;;;;;;3.33;2.92;;;11.40;99.90;;;;;;5074132;28;20132;-90
2021/08/07 00:32:26;;;;;;;5.55;3.03;;;11.30;99.90;;;;;;5074191;28;20051;-90
2021/08/07 00:34:53;;;;;;;3.08;2.78;;;11.30;99.90;;;;;;5074063;28;20041;-90
2021/08/07 00:37:20;;;;;;;4.10;3.13;;;11.30;99.90;;;;;;5073971;28;20492;-90
2021/08/07 00:39:47;;;;;;;2.97;2.78;;;11.30;99.90;;;;;;5074090;28;20541;-89
2021/08/07 00:42:13;;;;;;;3.38;3.08;;;11.30;99.90;;;;;;5073670;28;20135;-90
2021/08/07 00:44:40;;;;;;;2.88;2.67;;;11.30;99.90;;;;;;5073781;28;20040;-90
2021/08/07 00:47:07;;;;;;;5.22;2.50;;;11.20;99.90;;;;;;5073845;28;20140;-90
2021/08/07 00:49:33;;;;;;;3.00;2.80;;;11.20;99.90;;;;;;5073596;28;20056;-90
2021/08/07 00:52:01;;;;;;;7.80;3.50;;;11.10;99.90;;;;;;5073681;28;20127;-91
2021/08/07 00:54:28;;;;;;;4.50;2.80;;;11.00;99.90;;;;;;5083311;28;20060;-90
2021/08/07 00:56:54;;;;;;;5.18;2.80;;;10.90;99.90;;;;;;5086814;28;20083;-90
2021/08/07 00:59:21;;;;;;;3.22;2.90;;;10.90;99.90;;;;;;5083263;28;20576;-89
2021/08/07 01:01:55;;;;;;;4.88;3.47;;;10.90;99.90;;;;;;5073340;28;20048;-90
2021/08/07 01:04:26;;;;;;;4.03;3.58;;;10.90;99.90;;;;;;5073255;28;20397;-90
2021/08/07 01:07:04;;;;;;;5.55;3.05;;;10.90;99.90;;;;;;5073699;28;20052;-90
2021/08/07 01:09:46;;;;;;;7.35;3.13;;;10.90;99.90;;;;;;5073357;28;20135;-90
2021/08/07 01:12:20;;;;;;;3.97;2.83;;;10.80;99.90;;;;;;5073106;28;20103;-90
2021/08/07 01:14:50;;;;;;;6.22;2.80;;;10.70;99.90;;;;;;5073233;28;20108;-90
2021/08/07 01:17:24;;;;;;;7.35;3.40;;;10.70;99.90;;;;;;5073094;28;20048;-90
2021/08/07 01:20:13;;;;;;;3.92;2.80;;;10.80;99.90;;;;;;5072966;28;20511;-90
2021/08/07 01:22:51;;;;;;;6.43;3.00;;;10.80;99.90;;;;;;5072949;28;20048;-90
2021/08/07 01:25:19;;;;;;;4.60;3.47;;;10.90;99.90;;;;;;5073063;28;20048;-89
2021/08/07 01:27:47;;;;;;;5.25;3.78;;;10.90;99.90;;;;;;5073441;28;20477;-90
2021/08/07 01:30:17;;;;;;;4.68;3.33;;;10.90;99.90;;;;;;5072959;28;20049;-90
2021/08/07 01:32:44;;;;;;;5.25;3.60;;;11.00;99.90;;;;;;5073215;28;20056;-90
2021/08/07 01:35:12;;;;;;;3.58;3.28;;;11.00;99.90;;;;;;5072942;28;20143;-90
2021/08/07 01:37:40;;;;;;;3.92;3.33;;;11.00;99.90;;;;;;5072810;28;20135;-90
2021/08/07 01:40:07;;;;;;;3.63;3.33;;;10.90;99.90;;;;;;5072657;28;20048;-90
2021/08/07 01:42:34;;;;;;;3.85;3.55;;;10.80;99.90;;;;;;5072886;28;20061;-90
2021/08/07 01:45:01;;;;;;;3.47;2.88;;;10.80;99.90;;;;;;5079401;28;20060;-91
2021/08/07 01:47:43;;;;;;;7.35;3.53;;;10.80;99.90;;;;;;5073246;28;20135;-91
2021/08/07 01:50:27;;;;;;;4.80;3.35;;;10.80;99.90;;;;;;5072484;28;20053;-90
2021/08/07 01:53:02;;;;;;;3.90;3.50;;;10.80;99.90;;;;;;5072686;28;20485;-90
2021/08/07 01:55:45;;;;;;;5.55;3.08;;;10.80;99.90;;;;;;5072711;28;20198;-90
2021/08/07 01:58:20;;;;;;;3.60;3.10;;;10.80;99.90;;;;;;5072713;28;20075;-90
2021/08/07 02:00:47;;;;;;;5.32;2.92;;;10.70;99.90;;;;;;5072693;28;20384;-90
2021/08/07 02:03:15;;;;;;;5.55;3.50;;;10.70;99.90;;;;;;5072369;28;20442;-91
2021/08/07 02:05:44;;;;;;;3.78;3.08;;;10.60;99.90;;;;;;5072504;28;20541;-90
2021/08/07 02:08:12;;;;;;;4.72;3.88;;;10.60;99.90;;;;;;5072576;28;20063;-90
2021/08/07 02:10:45;;;;;;;5.57;3.65;;;10.60;99.90;;;;;;5072244;28;20052;-88
2021/08/07 02:13:16;;;;;;;3.30;3.10;;;10.60;99.90;;;;;;5072641;28;20079;-91
2021/08/07 02:15:46;;;;;;;3.47;3.17;;;10.70;99.90;;;;;;5072329;28;20128;-90
2021/08/07 02:18:17;;;;;;;4.60;3.40;;;10.70;99.90;;;;;;5072386;28;20543;-90
2021/08/07 02:20:43;;;;;;;3.65;3.30;;;10.70;99.90;;;;;;5072878;28;20597;-91
2021/08/07 02:23:14;;;;;;;3.60;3.30;;;10.70;99.90;;;;;;5072262;28;20068;-91
2021/08/07 02:25:42;;;;;;;5.20;2.75;;;10.60;99.90;;;;;;5072550;28;20415;-91
2021/08/07 02:28:11;;;;;;;5.78;3.30;;;10.50;99.90;;;;;;5072464;28;20060;-90
2021/08/07 02:30:40;;;;;;;5.78;3.38;;;10.60;99.90;;;;;;5072373;28;20132;-91
2021/08/07 02:33:08;;;;;;;4.28;3.13;;;10.60;99.90;;;;;;5072364;28;20432;-90
2021/08/07 02:35:35;;;;;;;3.33;3.08;;;10.60;99.90;;;;;;5072034;28;20132;-90
2021/08/07 02:38:03;;;;;;;3.47;3.15;;;10.50;99.90;;;;;;5072253;28;20052;-91
2021/08/07 02:40:32;;;;;;;4.68;2.70;;;10.50;99.90;;;;;;5072262;28;20131;-91
2021/08/07 02:42:59;;;;;;;3.15;2.95;;;10.50;99.90;;;;;;5072272;28;20511;-90
2021/08/07 02:45:27;;;;;;;5.68;3.00;;;10.50;99.90;;;;;;5072209;28;20044;-90
2021/08/07 02:47:54;;;;;;;9.68;3.42;;;10.50;99.90;;;;;;5072121;28;20060;-90
2021/08/07 02:50:21;;;;;;;4.60;3.05;;;10.60;99.90;;;;;;5071912;28;20040;-91
2021/08/07 02:52:48;;;;;;;3.28;3.08;;;10.60;99.90;;;;;;5072195;28;20066;-91
2021/08/07 02:55:15;;;;;;;3.33;3.03;;;10.70;99.90;;;;;;5072166;28;20059;-90
2021/08/07 02:57:42;;;;;;;4.63;3.00;;;10.70;99.90;;;;;;5072115;28;20412;-90
2021/08/07 03:00:10;;;;;;;6.10;3.50;;;10.70;99.90;;;;;;5071982;28;20067;-91
2021/08/07 03:02:39;;;;;;;5.03;3.05;;;10.70;99.90;;;;;;5071971;28;20062;-91
2021/08/07 03:05:06;;;;;;;4.35;2.83;;;10.70;99.90;;;;;;5075614;28;20071;-91
2021/08/07 03:07:33;;;;;;;2.72;2.53;;;10.70;99.90;;;;;;5072926;28;20110;-91
2021/08/07 03:10:00;;;;;;;2.80;2.60;;;10.70;99.90;;;;;;5072177;28;20079;-91
2021/08/07 03:12:27;;;;;;;3.63;2.90;;;10.70;99.90;;;;;;5071864;28;20068;-91
2021/08/07 03:14:53;;;;;;;3.40;2.50;;;10.70;99.90;;;;;;5072245;28;20051;-91
2021/08/07 03:17:20;;;;;;;2.75;2.55;;;10.60;99.90;;;;;;5083311;28;20053;-91
2021/08/07 03:19:47;;;;;;;2.67;2.30;;;10.60;99.90;;;;;;5085979;28;20079;-91
2021/08/07 03:22:16;;;;;;;2.78;2.58;;;10.50;99.90;;;;;;5075452;28;20048;-91
2021/08/07 03:24:44;;;;;;;2.75;2.55;;;10.50;99.90;;;;;;5075280;28;20052;-91
2021/08/07 03:27:11;;;;;;;5.28;2.65;;;10.30;99.90;;;;;;5075518;28;20135;-91
2021/08/07 03:29:38;;;;;;;2.67;2.47;;;10.30;99.90;;;;;;5075284;28;20086;-91
2021/08/07 03:32:05;;;;;;;2.50;2.30;;;10.30;99.90;;;;;;5075247;28;20481;-91
2021/08/07 03:34:32;;;;;;;3.55;2.42;;;10.30;99.90;;;;;;5075078;28;20553;-91
2021/08/07 03:36:59;;;;;;;3.55;3.20;;;10.30;99.90;;;;;;5075047;28;20503;-91
2021/08/07 03:39:25;;;;;;;6.60;2.67;;;10.30;99.90;;;;;;5075080;28;20135;-91
2021/08/07 03:41:52;;;;;;;3.10;2.67;;;10.30;99.90;;;;;;5075140;28;20063;-91
2021/08/07 03:44:19;;;;;;;3.67;2.70;;;10.20;99.90;;;;;;5074910;28;20075;-91
2021/08/07 03:46:46;;;;;;;4.85;3.25;;;10.20;99.90;;;;;;5074808;28;20139;-91
2021/08/07 03:49:13;;;;;;;7.22;2.90;;;10.10;99.90;;;;;;5075133;28;20044;-91
2021/08/07 03:51:39;;;;;;;2.97;2.60;;;10.10;99.90;;;;;;5075087;28;20135;-91
2021/08/07 03:54:06;;;;;;;9.88;3.10;;;10.20;99.90;;;;;;5074701;28;20052;-91
2021/08/07 03:56:33;;;;;;;3.45;3.05;;;10.20;99.90;;;;;;5074817;28;20048;-91
2021/08/07 03:58:59;;;;;;;4.38;2.67;;;10.20;99.90;;;;;;5074871;28;20048;-91
2021/08/07 04:01:26;;;;;;;4.88;2.97;;;10.20;99.90;;;;;;5074866;28;20048;-91
2021/08/07 04:03:53;;;;;;;3.58;2.97;;;10.10;99.90;;;;;;5074574;28;20048;-90
2021/08/07 04:06:26;;;;;;;5.45;3.30;;;10.10;99.90;;;;;;5074620;28;20045;-91
2021/08/07 04:08:53;;;;;;;6.80;3.67;;;10.10;99.90;;;;;;5074861;28;20048;-91
2021/08/07 04:11:20;;;;;;;4.13;3.08;;;10.00;99.90;;;;;;5074631;28;20041;-91
2021/08/07 04:13:46;;;;;;;4.50;3.55;;;10.10;99.90;;;;;;5074511;28;20041;-92
2021/08/07 04:16:13;;;;;;;5.75;3.55;;;10.00;99.90;;;;;;5074608;28;20049;-92
2021/08/07 04:18:40;;;;;;;6.15;4.47;;;10.10;99.90;;;;;;5074269;28;20098;-91
2021/08/07 04:21:07;;;;;;;4.45;3.50;;;10.10;99.90;;;;;;5074799;28;20056;-92
2021/08/07 04:23:33;;;;;;;4.13;3.30;;;10.20;99.90;;;;;;5076432;28;20063;-91
2021/08/07 04:26:00;;;;;;;3.70;3.40;;;10.30;99.90;;;;;;5077176;28;20040;-91
2021/08/07 04:28:27;;;;;;;5.85;3.95;;;10.40;99.90;;;;;;5074400;28;20135;-91
2021/08/07 04:30:53;;;;;;;4.18;3.88;;;10.40;99.90;;;;;;5074213;28;20132;-92
2021/08/07 04:33:21;;;;;;;4.35;4.05;;;10.50;99.90;;;;;;5074202;28;20094;-92
2021/08/07 04:35:47;;;;;;;6.35;4.32;;;10.60;99.90;;;;;;5072933;28;20055;-92
2021/08/07 04:38:14;;;;;;;5.43;4.60;;;10.60;99.90;;;;;;5073970;28;20052;-92
2021/08/07 04:40:41;;;;;;;6.70;4.20;;;10.70;99.90;;;;;;5073947;28;20049;-92
2021/08/07 04:43:08;;;;;;;3.83;3.42;;;10.80;99.90;;;;;;5073701;28;20526;-91
2021/08/07 04:45:34;;;;;;;4.22;3.30;;;10.80;99.90;;;;;;5073816;28;20041;-92
2021/08/07 04:48:05;;;;;;;4.40;3.45;;;10.80;99.90;;;;;;5073994;28;20459;-92
2021/08/07 04:50:33;;;;;;;5.72;3.95;;;10.90;99.90;;;;;;5073726;28;20139;-92
2021/08/07 04:53:01;;;;;;;5.28;4.57;;;11.00;99.90;;;;;;5073721;28;20123;-92
2021/08/07 04:55:28;;;;;;;5.30;4.78;;;10.90;99.90;;;;;;5073348;28;20122;-92
2021/08/07 04:57:55;;;;;;;6.40;4.10;;;10.90;99.90;;;;;;5073968;28;20048;-92
2021/08/07 05:00:23;;;;;;;6.50;5.88;;;11.00;99.90;;;;;;5073459;28;20545;-92
2021/08/07 05:02:50;;;;;;;6.68;6.07;;;11.10;99.90;;;;;;5073630;28;20056;-92
2021/08/07 05:05:18;;;;;;;8.15;7.30;;;11.30;99.90;;;;;;5073550;28;20048;-92
2021/08/07 05:07:47;;;;;;;7.07;6.43;;;11.50;99.90;;;;;;5073726;28;20061;-91
2021/08/07 05:10:16;;;;;;;7.40;6.78;;;11.70;99.90;;;;;;5073629;28;20052;-93
2021/08/07 05:12:43;;;;;;;8.23;6.85;;;11.90;99.90;;;;;;5073942;28;20048;-93
2021/08/07 05:15:10;;;;;;;8.10;6.07;;;12.10;99.90;;;;;;5073599;28;20544;-90
2021/08/07 05:17:37;;;;;;;8.27;6.38;;;12.40;99.90;;;;;;5073566;28;20057;-91
2021/08/07 05:20:04;;;;;;;7.70;6.93;;;12.60;99.90;;;;;;5072967;28;20056;-92
2021/08/07 05:22:31;;;;;;;6.88;6.18;;;12.70;99.90;;;;;;5073391;28;20116;-92
2021/08/07 05:24:58;;;;;;;6.63;4.88;;;12.90;99.90;;;;;;5073519;28;20052;-94
2021/08/07 05:27:25;;;;;;;8.15;4.68;;;13.00;99.90;;;;;;5073657;28;20143;-92
2021/08/07 05:29:51;;;;;;;6.95;4.68;;;13.10;99.90;;;;;;5073478;28;20051;-92
2021/08/07 05:32:18;;;;;;;6.97;5.25;;;13.30;99.90;;;;;;5073372;28;20540;-92
2021/08/07 05:34:45;;;;;;;6.35;5.85;;;13.40;99.90;;;;;;5073194;28;20131;-92
2021/08/07 05:37:12;;;;;;;5.70;3.75;;;13.70;99.90;;;;;;5082804;28;20075;-91
2021/08/07 05:39:38;;;;;;;7.32;3.35;;;14.00;99.90;;;;;;5087895;28;20107;-93
2021/08/07 05:42:05;;;;;;;10.90;2.30;;;14.20;99.90;;;;;;5089505;28;20076;-91
2021/08/07 05:44:32;;;;;;;5.22;2.05;;;14.30;99.90;;;;;;5085981;28;20116;-92
2021/08/07 05:46:59;;;;;;;3.45;2.28;;;14.20;99.90;;;;;;5073417;28;20143;-91
2021/08/07 05:49:25;;;;;;;4.15;2.03;;;14.50;99.90;;;;;;5072831;28;20052;-91
2021/08/07 05:51:52;;;;;;;1.95;1.40;;;14.70;99.90;;;;;;5073514;28;20045;-91
2021/08/07 05:54:22;;;;;;;3.72;1.27;;;15.00;99.90;;;;;;5078288;28;20079;-89
2021/08/07 05:56:49;;;;;;;4.30;1.50;;;15.40;99.90;;;;;;5073951;28;20132;-92
2021/08/07 05:59:16;;;;;;;4.13;1.92;;;15.80;99.90;;;;;;5072849;28;20059;-91
2021/08/07 06:01:43;;;;;;;1.20;1.10;;;16.50;99.90;;;;;;5072844;28;20122;-91
2021/08/07 06:04:09;;;;;;;1.20;1.10;;;17.10;99.90;;;;;;5072462;28;20059;-91
2021/08/07 06:06:36;;;;;;;3.10;1.05;;;17.70;99.90;;;;;;5072685;28;20058;-91
2021/08/07 06:09:03;;;;;;;4.97;1.33;;;18.00;99.90;;;;;;5072852;28;20135;-91
2021/08/07 06:11:30;;;;;;;1.45;0.90;;;18.30;99.90;;;;;;5072486;28;20135;-91
2021/08/07 06:13:57;;;;;;;2.10;0.90;;;18.70;99.90;;;;;;5072811;28;20131;-92
2021/08/07 06:16:23;;;;;;;1.45;1.00;;;19.30;99.90;;;;;;5072264;28;20079;-92
2021/08/07 06:18:50;;;;;;;5.50;0.93;;;19.80;99.90;;;;;;5072301;28;20139;-91
2021/08/07 06:21:18;;;;;;;4.60;0.90;;;20.50;99.90;;;;;;5072722;28;20066;-92
2021/08/07 06:23:45;;;;;;;1.75;1.10;;;20.70;99.90;;;;;;5072302;28;20079;-92
2021/08/07 06:26:13;;;;;;;4.55;0.90;;;20.90;99.90;;;;;;5072230;28;20052;-91
2021/08/07 06:28:40;;;;;;;3.42;1.38;;;20.90;99.90;;;;;;5072492;28;20105;-91
2021/08/07 06:31:09;;;;;;;0.80;0.80;;;20.90;99.90;;;;;;5072299;28;20052;-92
2021/08/07 06:33:36;;;;;;;1.30;0.90;;;20.70;99.90;;;;;;5072388;28;20562;-93
2021/08/07 06:36:04;;;;;;;0.70;0.70;;;20.50;99.90;;;;;;5072332;28;20136;-91
2021/08/07 06:38:32;;;;;;;1.40;0.90;;;20.60;99.90;;;;;;5072213;28;20127;-91
2021/08/07 06:40:59;;;;;;;2.75;0.82;;;20.80;99.90;;;;;;5072617;28;20051;-91
2021/08/07 06:43:25;;;;;;;4.82;1.10;;;21.50;99.90;;;;;;5072145;28;20492;-91
2021/08/07 06:45:52;;;;;;;5.45;0.75;;;21.90;99.90;;;;;;5072032;28;20052;-91
2021/08/07 06:48:20;;;;;;;3.13;0.70;;;22.00;99.90;;;;;;5072266;28;20481;-91
2021/08/07 06:50:47;;;;;;;0.85;0.80;;;22.10;99.90;;;;;;5072493;28;20044;-92
2021/08/07 06:53:13;;;;;;;2.17;0.85;;;22.60;99.90;;;;;;5072244;28;20492;-91
2021/08/07 06:55:40;;;;;;;1.15;0.70;;;22.90;99.90;;;;;;5072525;28;20497;-89
2021/08/07 06:58:07;;;;;;;0.52;0.52;;;23.30;99.90;;;;;;5073903;28;20128;-91
2021/08/07 07:00:38;;;;;;;1.17;1.05;;;23.70;99.90;;;;;;5076266;28;20555;-89
2021/08/07 07:03:06;;;;;;;1.08;0.80;;;24.50;99.90;;;;;;5079413;28;20053;-89
2021/08/07 07:05:34;;;;;;;2.17;0.50;;;24.70;99.90;;;;;;5079814;28;20063;-89
2021/08/07 07:08:01;;;;;;;0.70;0.60;;;24.70;99.90;;;;;;5078882;28;20139;-87
2021/08/07 07:10:29;;;;;;;2.90;0.60;;;24.70;99.90;;;;;;5075753;28;20056;-88
2021/08/07 07:12:57;;;;;;;0.60;0.60;;;24.60;99.90;;;;;;5075559;28;20333;-89
2021/08/07 07:15:23;;;;;;;1.70;0.98;;;25.00;99.90;;;;;;5075604;28;20396;-90
2021/08/07 07:17:50;;;;;;;2.05;1.20;;;25.70;99.90;;;;;;5075577;28;20131;-88
2021/08/07 07:20:20;;;;;;;2.40;0.45;;;26.00;99.90;;;;;;5075023;28;20060;-89
2021/08/07 07:22:47;;;;;;;3.47;1.25;;;26.00;99.90;;;;;;5075465;28;20136;-87
2021/08/07 07:25:16;;;;;;;3.47;1.00;;;26.00;99.90;;;;;;5075097;28;20052;-88
2021/08/07 07:27:44;;;;;;;4.95;1.02;;;25.30;99.90;;;;;;5075384;28;20048;-87
2021/08/07 07:30:12;;;;;;;0.70;0.43;;;25.10;99.90;;;;;;5076165;28;20561;-87
2021/08/07 07:32:39;;;;;;;1.58;0.40;;;25.60;99.90;;;;;;5077532;28;20135;-88
2021/08/07 07:35:07;;;;;;;0.35;0.30;;;25.80;99.90;;;;;;5074923;28;20139;-87
2021/08/07 07:37:34;;;;;;;1.52;0.50;;;26.50;99.90;;;;;;5075179;28;20048;-88
2021/08/07 07:40:01;;;;;;;1.02;0.40;;;26.40;99.90;;;;;;5075051;28;20048;-88
2021/08/07 07:42:28;;;;;;;0.73;0.40;;;27.30;99.80;;;;;;5074441;28;20052;-92
2021/08/07 07:44:54;;;;;;;1.02;0.40;;;27.70;96.50;;;;;;5074230;28;20052;-89
2021/08/07 07:47:21;;;;;;;1.60;0.50;;;27.40;97.30;;;;;;5075307;28;20120;-90
2021/08/07 07:49:48;;;;;;;0.77;0.50;;;28.20;96.50;;;;;;5075322;28;20048;-90
2021/08/07 07:52:15;;;;;;;2.70;0.60;;;28.20;94.60;;;;;;5075048;28;20056;-90
2021/08/07 07:54:41;;;;;;;3.83;1.30;;;28.60;93.40;;;;;;5075064;28;20062;-88
2021/08/07 07:57:08;;;;;;;5.20;1.52;;;27.90;92.50;;;;;;5075106;28;20128;-88
2021/08/07 07:59:35;;;;;;;3.30;1.23;;;28.00;94.00;;;;;;5076461;28;20135;-89
2021/08/07 08:02:03;;;;;;;2.22;1.05;;;28.30;93.50;;;;;;5078844;28;20049;-88
2021/08/07 08:04:31;;;;;;;0.60;0.30;;;28.80;92.20;;;;;;5078648;28;20560;-88
2021/08/07 08:07:00;;;;;;;0.60;0.45;;;29.20;91.00;;;;;;5074860;28;20056;-89
2021/08/07 08:09:28;;;;;;;0.77;0.73;;;29.00;90.70;;;;;;5075791;28;20126;-89
2021/08/07 08:11:55;;;;;;;2.38;0.50;;;28.60;90.20;;;;;;5074820;28;20048;-89
2021/08/07 08:14:22;;;;;;;4.22;0.60;;;28.00;90.80;;;;;;5074688;28;20075;-92
2021/08/07 08:16:49;;;;;;;0.47;0.45;;;27.40;91.20;;;;;;5075775;28;20044;-88
2021/08/07 08:19:16;;;;;;;0.45;0.40;;;27.00;92.10;;;;;;5074270;28;20144;-89
2021/08/07 08:21:43;;;;;;;1.08;0.47;;;27.10;93.00;;;;;;5075654;28;20055;-89
2021/08/07 08:24:10;;;;;;;5.22;0.50;;;27.50;93.40;;;;;;5076554;28;20055;-89
2021/08/07 08:26:39;;;;;;;1.55;0.63;;;28.10;92.90;;;;;;5074836;28;20446;-88
2021/08/07 08:29:07;;;;;;;0.98;0.30;;;28.80;92.00;;;;;;5074467;28;20045;-89
2021/08/07 08:31:34;;;;;;;0.52;0.30;;;29.20;91.00;;;;;;5074191;28;20058;-89
2021/08/07 08:34:01;;;;;;;0.30;0.30;;;30.50;88.60;;;;;;5074026;28;20064;-89
2021/08/07 08:36:28;;;;;;;0.95;0.65;;;31.20;82.60;;;;;;5074068;28;20048;-90
2021/08/07 08:38:55;;;;;;;0.95;0.60;;;31.00;81.10;;;;;;5074312;28;20041;-88
2021/08/07 08:41:23;;;;;;;0.70;0.40;;;31.90;77.10;;;;;;5074045;28;20064;-89
2021/08/07 08:43:53;;;;;;;1.00;0.25;;;31.40;75.50;;;;;;5074129;28;20143;-89
2021/08/07 08:46:20;;;;;;;2.67;0.50;;;31.50;73.50;;;;;;5074255;28;20048;-89
2021/08/07 08:48:47;;;;;;;0.63;0.30;;;31.70;74.50;;;;;;5074385;28;20133;-88
2021/08/07 08:51:18;;;;;;;0.75;0.40;;;31.60;74.20;;;;;;5073999;28;20098;-88
2021/08/07 08:53:45;;;;;;;0.57;0.30;;;30.50;75.40;;;;;;5073531;28;20515;-88
2021/08/07 08:56:12;;;;;;;0.52;0.30;;;29.80;72.80;;;;;;5073596;28;20139;-90
2021/08/07 08:58:39;;;;;;;0.65;0.40;;;28.90;74.30;;;;;;5073891;28;20140;-87
2021/08/07 09:01:07;;;;;;;9.70;3.30;;;28.20;75.30;;;;;;5074077;28;20055;-88
2021/08/07 09:03:34;;;;;;;2.10;0.80;;;27.00;76.70;;;;;;5074196;28;20105;-90
2021/08/07 09:06:02;;;;;;;0.70;0.20;;;26.70;79.60;;;;;;5075409;28;20519;-88
2021/08/07 09:08:29;;;;;;;0.63;0.40;;;26.90;78.10;;;;;;5074054;28;20139;-87
2021/08/07 09:11:13;;;;;;;1.40;0.35;;;28.30;78.20;;;;;;5074190;28;20135;-90
2021/08/07 09:13:40;;;;;;;1.42;0.50;;;29.10;74.10;;;;;;5075207;28;20049;-87
2021/08/07 09:16:09;;;;;;;1.05;0.40;;;30.00;72.40;;;;;;5073727;28;20056;-89
2021/08/07 09:18:36;;;;;;;0.85;0.40;;;31.30;70.60;;;;;;5073723;28;20126;-90
2021/08/07 09:21:12;;;;;;;0.32;0.30;;;31.90;71.30;;;;;;5073004;28;20140;-90
2021/08/07 09:23:39;;;;;;;1.25;0.32;;;32.70;67.90;;;;;;5073793;28;20142;-89
2021/08/07 09:26:23;;;;;;;2.13;0.35;;;33.40;66.00;;;;;;5073612;28;20131;-88
2021/08/07 09:28:54;;;;;;;;;;;33.40;63.00;;;;;;5077021;28;20489;-90
2021/08/07 09:31:22;;;;;;;0.40;0.30;;;32.80;65.00;;;;;;5074841;28;19928;-93
2021/08/07 09:34:18;;;;;;;5.30;0.40;;;32.80;62.80;;;;;;5074125;28;20075;-90
2021/08/07 09:36:56;;;;;;;0.90;0.47;;;33.30;61.60;;;;;;5075014;28;20056;-94
2021/08/07 09:39:38;;;;;;;4.28;2.10;;;32.60;61.60;;;;;;5074768;28;20049;-88
2021/08/07 09:42:06;;;;;;;1.17;0.50;;;32.00;62.50;;;;;;5091273;28;20124;-90
2021/08/07 09:44:35;;;;;;;1.70;0.40;;;32.80;63.70;;;;;;5077207;28;20068;-89
2021/08/07 09:47:10;;;;;;;1.77;0.40;;;33.40;60.10;;;;;;5073285;28;20105;-88
2021/08/07 09:49:42;;;;;;;0.73;0.60;;;33.70;61.00;;;;;;5073675;28;20139;-90
2021/08/07 09:52:10;;;;;;;7.30;1.63;;;32.60;62.10;;;;;;5073482;28;20040;-90
2021/08/07 09:54:42;;;;;;;9.45;1.60;;;31.80;62.20;;;;;;5073117;28;20060;-89
2021/08/07 09:57:10;;;;;;;3.60;1.30;;;31.20;63.80;;;;;;5074306;28;20507;-92
2021/08/07 09:59:48;;;;;;;7.85;1.10;;;29.80;66.20;;;;;;5073853;28;20063;-92
2021/08/07 10:02:24;;;;;;;1.27;0.60;;;30.10;68.00;;;;;;5073671;28;20135;-91
2021/08/07 10:04:52;;;;;;;0.30;0.28;;;29.80;65.20;;;;;;5075805;28;20075;-89
2021/08/07 10:07:19;;;;;;;1.85;0.30;;;28.80;67.50;;;;;;5075911;28;20067;-92
2021/08/07 10:09:46;;;;;;;0.82;0.50;;;28.40;68.10;;;;;;5073573;28;20052;-91
2021/08/07 10:12:15;;;;;;;1.65;0.47;;;27.80;69.80;;;;;;5073462;28;20139;-90
2021/08/07 10:14:43;;;;;;;1.60;0.38;;;27.40;72.60;;;;;;5073682;28;20544;-89
2021/08/07 10:17:12;;;;;;;1.48;0.50;;;27.00;73.70;;;;;;5073262;28;20044;-88
2021/08/07 10:19:40;;;;;;;2.00;0.63;;;27.00;73.30;;;;;;5073448;28;20060;-88
2021/08/07 10:22:09;;;;;;;1.23;0.50;;;26.90;76.10;;;;;;5074271;28;20044;-92
2021/08/07 10:24:37;;;;;;;2.35;0.43;;;27.50;77.60;;;;;;5077504;28;20112;-90
2021/08/07 10:27:05;;;;;;;1.33;0.40;;;28.60;73.90;;;;;;5082350;28;20083;-91
2021/08/07 10:29:42;;;;;;;1.23;0.63;;;29.00;72.30;;;;;;5074225;28;20404;-89
2021/08/07 10:32:09;;;;;;;0.82;0.40;;;29.30;73.40;;;;;;5074968;28;20049;-89
2021/08/07 10:34:37;;;;;;;1.73;0.50;;;31.70;70.10;;;;;;5077562;28;20074;-89
2021/08/07 10:37:05;;;;;;;0.85;0.45;;;33.90;64.20;;;;;;5078274;28;20079;-91
2021/08/07 10:39:33;;;;;;;0.90;0.40;;;33.40;62.00;;;;;;5078075;28;20048;-91
2021/08/07 10:42:04;;;;;;;2.22;1.10;;;32.50;63.10;;;;;;5078900;28;20041;-89
2021/08/07 10:44:32;;;;;;;18.05;2.55;;;30.50;64.40;;;;;;5077549;28;20053;-89
2021/08/07 10:46:59;;;;;;;2.28;0.70;;;28.10;70.50;;;;;;5077608;28;20147;-90
2021/08/07 10:49:47;;;;;;;4.38;1.67;;;27.90;71.30;;;;;;5076700;28;20572;-90
2021/08/07 10:52:20;;;;;;;2.80;0.90;;;27.90;73.90;;;;;;5076646;28;20048;-91
2021/08/07 10:54:51;;;;;;;2.23;0.90;;;27.90;77.60;;;;;;5076942;28;20450;-90
2021/08/07 10:57:35;;;;;;;3.40;0.90;;;27.60;73.90;;;;;;5077812;28;20075;-90
2021/08/07 11:00:16;;;;;;;1.65;0.63;;;27.40;74.90;;;;;;5089132;28;20048;-91
2021/08/07 11:02:44;;;;;;;0.73;0.60;;;27.60;74.90;;;;;;5094063;28;20112;-88
2021/08/07 11:05:12;;;;;;;1.58;0.90;;;27.20;77.20;;;;;;5076141;28;20060;-89
2021/08/07 11:07:39;;;;;;;1.60;0.77;;;26.80;76.70;;;;;;5076218;28;20112;-90
2021/08/07 11:10:16;;;;;;;1.50;0.80;;;26.50;78.40;;;;;;5075998;28;20394;-89
2021/08/07 11:12:46;;;;;;;2.17;0.98;;;26.30;79.10;;;;;;5076177;28;20094;-90
2021/08/07 11:15:29;;;;;;;1.48;0.65;;;26.00;81.90;;;;;;5075975;28;20068;-88
2021/08/07 11:17:55;;;;;;;1.13;1.00;;;25.70;81.10;;;;;;5075979;28;20044;-88
2021/08/07 11:20:42;;;;;;;1.60;1.50;;;25.40;84.20;;;;;;5075285;28;20064;-89
2021/08/07 11:23:11;;;;;;;3.10;2.55;;;25.80;85.10;;;;;;5076171;28;20045;-89
2021/08/07 11:25:55;;;;;;;1.95;1.60;;;27.00;84.10;;;;;;5075462;28;20057;-90
2021/08/07 11:28:22;;;;;;;4.75;4.35;;;29.60;77.40;;;;;;5075923;28;20143;-90
2021/08/07 11:31:16;;;;;;;6.43;1.88;;;30.80;74.40;;;;;;5075709;28;20139;-90
2021/08/07 11:33:43;;;;;;;1.25;1.00;;;31.00;72.90;;;;;;5076020;28;20068;-90
2021/08/07 11:36:12;;;;;;;1.17;1.02;;;30.00;73.50;;;;;;5075502;28;20132;-87
2021/08/07 11:39:06;;;;;;;3.72;3.53;;;29.30;75.00;;;;;;5075524;28;20486;-88
2021/08/07 11:41:35;;;;;;;1.58;1.38;;;28.30;76.90;;;;;;5072949;28;20052;-91
2021/08/07 11:44:03;;;;;;;1.65;0.80;;;27.80;77.90;;;;;;5074730;28;20040;-89
2021/08/07 11:46:37;;;;;;;2.60;1.20;;;27.20;78.30;;;;;;5075359;28;20143;-88
2021/08/07 11:49:06;;;;;;;2.38;0.90;;;26.70;80.40;;;;;;5075698;28;20568;-88
2021/08/07 11:51:33;;;;;;;2.17;0.88;;;26.30;82.40;;;;;;5075497;28;20053;-88
2021/08/07 11:54:00;;;;;;;7.22;6.50;;;25.80;85.70;;;;;;5075135;28;20044;-89
2021/08/07 11:56:34;;;;;;;3.13;2.92;;;25.30;87.60;;;;;;5075203;28;20046;-88
2021/08/07 11:59:01;;;;;;;2.40;1.73;;;24.60;88.60;;;;;;5075339;28;20068;-89
2021/08/07 12:01:38;;;;;;;2.63;1.23;;;24.10;91.90;;;;;;5075077;28;20456;-89
2021/08/07 12:04:06;;;;;;;1.33;0.85;;;23.90;94.50;;;;;;5075171;28;20102;-88
2021/08/07 12:06:38;;;;;;;1.77;0.70;;;24.10;94.20;;;;;;5074722;28;20076;-89
2021/08/07 12:09:17;;;;;;;3.03;0.88;;;24.50;94.20;;;;;;5075202;28;20044;-90
2021/08/07 12:11:47;;;;;;;4.47;1.00;;;25.00;93.80;;;;;;5075095;28;20072;-90
2021/08/07 12:14:24;;;;;;;2.00;0.90;;;25.50;92.70;;;;;;5075093;28;20447;-88
2021/08/07 12:16:51;;;;;;;0.93;0.70;;;26.30;92.40;;;;;;5075344;28;20044;-89
2021/08/07 12:19:22;;;;;;;1.85;0.95;;;27.10;91.60;;;;;;5087426;28;20052;-88
2021/08/07 12:21:49;;;;;;;3.60;0.90;;;27.20;86.20;;;;;;5084079;28;20071;-90
2021/08/07 12:24:22;;;;;;;1.88;0.80;;;26.50;90.10;;;;;;5074562;28;20080;-88
2021/08/07 12:26:50;;;;;;;;;;;26.60;88.30;;;;;;5074828;28;20128;-88
2021/08/07 12:29:22;;;;;;;2.10;0.80;;;27.00;88.60;;;;;;5074495;28;20284;-88
2021/08/07 12:31:53;;;;;;;1.23;0.80;;;27.40;87.10;;;;;;5074556;28;20044;-89
2021/08/07 12:34:27;;;;;;;1.80;1.10;;;27.50;88.10;;;;;;5074405;28;20075;-90
2021/08/07 12:37:19;;;;;;;1.75;0.75;;;27.70;88.70;;;;;;5074747;28;20067;-88
2021/08/07 12:39:52;;;;;;;3.60;0.90;;;28.10;86.40;;;;;;5074573;28;20533;-89
2021/08/07 12:42:23;;;;;;;1.63;0.98;;;28.20;85.30;;;;;;5074461;28;20056;-89
2021/08/07 12:45:04;;;;;;;1.65;0.80;;;27.90;87.10;;;;;;5077055;28;20064;-89
2021/08/07 12:47:32;;;;;;;2.15;0.90;;;27.90;87.80;;;;;;5080488;28;20502;-90
2021/08/07 12:50:15;;;;;;;1.35;0.85;;;27.70;88.20;;;;;;5074405;28;20045;-89
2021/08/07 12:52:53;;;;;;;1.05;0.70;;;27.30;90.40;;;;;;5074048;28;20087;-90
2021/08/07 12:55:20;;;;;;;3.95;1.58;;;26.90;90.30;;;;;;5072887;28;20076;-89
2021/08/07 12:57:48;;;;;;;2.78;1.00;;;26.40;90.50;;;;;;5073980;28;20048;-88